x

Molasses Reef, Fl (mlrf1) Weather Station

8:00am - Fri 26th May 2017 All times are EDT. -4 hours from GMT.

  • Wind
    2mph, 2mph gusts
  • Sea Temp 81°f
  • Air Temp 81°f
  • Sea Pressure 1017mb
  • Molasses Reef, Fl
  • Molasses Reef, Fl

More Historic Weather Station data

Upgrade to MSW Pro to gain access to the past 30 days of data for over 8000 Wavebouys and Weather Stations around the globe.

Join Pro

Comparision Forecast

View Surf forecast
   
Fri 05/26 8:00am 2 2 mph 1017mb 81f 81f
7:00am  -  0 mph 1016.4mb 81f 81f
6:00am  -  0 mph 1015.9mb 81f 81f
5:00am  -  1 mph 1015.5mb 81f 81f
4:00am 2 3 mph 1015.3mb 81f 81f
3:00am  -  1 mph 1015.3mb 81f 81f
2:00am 13 14 mph 1015.3mb 81f 82f
1:00am 11 11 mph 1015.9mb 81f 82f
12:00am 9 10 mph 1015.8mb 81f 81f
Thu 05/25 11:00pm 8 9 mph 1015.5mb 81f 82f
10:00pm 8 9 mph 1014.7mb 81f 82f
9:00pm 8 9 mph 1014.3mb 81f 82f
8:00pm 10 11 mph 1014mb 81f 82f
7:00pm 3 6 mph 1013.2mb 81f 82f
5:00pm 11 13 mph 1012.8mb 81f 82f
4:00pm 14 14 mph 1012.8mb 81f 82f
3:00pm 17 18 mph 1013.1mb 81f 82f
2:00pm 18 21 mph 1013.4mb 81f 82f
1:00pm 21 22 mph 1013.5mb 81f 82f
12:00pm 20 22 mph 1014mb 81f 82f
11:00am 23 25 mph 1013.3mb 81f 82f
10:00am 25 26 mph 1012.8mb 80f 82f
9:00am 22 25 mph 1012.2mb 80f 82f
8:00am 20 22 mph 1011.8mb 81f 82f
7:00am 22 24 mph 1011.6mb 81f 81f
6:00am 23
mph
1011.2mb - 81f
5:00am 22 24 mph 1011.1mb 81f 82f
4:00am 6 9 mph 1010.6mb 81f 81f
3:00am 13 14 mph 1011.3mb 81f 80f
2:00am 14 16 mph 1012.1mb 81f 80f
1:00am 15 16 mph 1012.3mb 81f 80f
12:00am 13 15 mph 1012.5mb 81f 79f
Wed 05/24 11:00pm 10 14 mph 1013.4mb 81f 78f
10:00pm 23 28 mph 1013.1mb 81f 76f
9:00pm 13 15 mph 1011.6mb 81f 83f
8:00pm 16 18 mph 1010.7mb 81f 82f
6:00pm 23 26 mph 1010.4mb 82f 82f
5:00pm 17 20 mph 1010.7mb 82f 82f
4:00pm 18
mph
- - 82f
3:00pm 22 24 mph 1010.7mb 82f 82f
2:00pm 23 25 mph 1011.1mb 82f 82f
1:00pm 18 21 mph 1012.1mb 82f 82f
12:00pm 21 23 mph 1012.8mb 82f 81f
11:00am 22 24 mph 1012.3mb 82f 81f
10:00am 21 22 mph 1011.7mb 82f 81f
1:00am 17 20 mph 1013.7mb 82f 81f
12:00am 16 17 mph 1014.1mb 82f 81f
Tue 05/23 11:00pm 13 15 mph 1014.1mb 82f 81f
8:00pm 7 9 mph 1013.2mb 82f 81f
7:00pm 10 11 mph 1013.2mb 82f 81f
6:00pm 10 10 mph 1013.2mb 82f 81f
5:00pm 13 14 mph 1013.3mb 82f 81f
4:00pm 14 15 mph 1013.8mb 82f 81f
3:00pm 15 16 mph 1014.4mb 82f 81f
2:00pm 15 16 mph 1014.9mb 82f 81f
1:00pm 14 15 mph 1015.2mb 82f 81f
12:00pm 16 17 mph 1015.9mb 82f 81f
11:00am 16 17 mph 1016.1mb 82f 80f
10:00am 15 16 mph 1016.2mb 81f 81f
9:00am 16 18 mph 1015.9mb 81f 80f
8:00am 15 16 mph 1015.6mb 81f 80f
7:00am 14 15 mph 1015.3mb 81f 80f
6:00am 16 17 mph 1014.6mb 81f 80f
5:00am 10 10 mph 1014.7mb 81f 79f
4:00am 10 11 mph 1014.9mb 81f 79f
3:00am 13 14 mph 1014.9mb 81f 79f
2:00am 14 16 mph 1015.5mb 81f 80f
1:00am 11 14 mph 1016.3mb 81f 80f
12:00am 11 13 mph 1017.1mb 81f 80f
Mon 05/22 11:00pm 10 13 mph 1017.5mb 81f 80f
10:00pm 9 10 mph 1017.3mb 81f 80f
9:00pm 9 10 mph 1017mb - 80f
8:00pm 11 13 mph 1016.1mb 81f 80f
7:00pm 14 15 mph 1015.6mb 81f 80f
6:00pm 11 13 mph 1016.1mb 82f 81f
5:00pm 10 11 mph 1016.4mb 82f 81f
4:00pm 13 14 mph 1016.5mb 82f 80f
3:00pm 13 14 mph 1017.2mb 82f 80f
2:00pm 13 14 mph 1017.9mb 82f 80f